Time;durP1;ratioP1;P1;durP2;ratioP2;P2;SDS_P1;SDS_P2;PMS_P1;PMS_P2;Temp;Humidity;BMP_temperature;BMP_pressure;BME280_temperature;BME280_humidity;BME280_pressure;Samples;Min_cycle;Max_cycle;Signal;HPM_P1;HPM_P2
2023/02/26 00:02:16;;;;;;;8.30;2.30;;;;;;;6.07;54.54;102074.16;5002471;28;20026;-46
2023/02/26 00:04:41;;;;;;;6.22;2.03;;;;;;;5.84;55.64;102070.38;5005993;28;20347;-44
2023/02/26 00:07:08;;;;;;;7.20;1.70;;;;;;;5.97;55.07;102083.19;5003844;28;20137;-43
2023/02/26 00:09:33;;;;;;;5.22;1.83;;;;;;;5.99;55.40;102080.63;5007998;28;20061;-46
2023/02/26 00:11:59;;;;;;;4.43;1.70;;;;;;;6.07;54.94;102082.81;5004665;28;20042;-46
2023/02/26 00:14:25;;;;;;;5.35;1.60;;;;;;;5.97;55.59;102082.28;5008328;28;20100;-44
2023/02/26 00:17:16;;;;;;;7.10;1.90;;;;;;;5.96;55.31;102088.25;5009568;28;20034;-45
2023/02/26 00:19:41;;;;;;;5.65;1.60;;;;;;;5.93;55.78;102094.16;5003688;28;20048;-43
2023/02/26 00:22:07;;;;;;;5.30;1.60;;;;;;;5.91;55.54;102108.75;4999356;28;20030;-48
2023/02/26 00:24:33;;;;;;;7.63;1.60;;;;;;;5.91;55.93;102105.25;4986484;28;20160;-43
2023/02/26 00:26:59;;;;;;;5.03;1.70;;;;;;;5.92;56.45;102109.59;5001445;28;20030;-44
2023/02/26 00:29:25;;;;;;;5.63;1.58;;;;;;;5.83;56.58;102104.81;5006249;28;20096;-43
2023/02/26 00:31:50;;;;;;;5.50;1.38;;;;;;;5.97;56.41;102105.59;5005221;28;20037;-44
2023/02/26 00:34:16;;;;;;;5.40;1.50;;;;;;;5.96;55.97;102114.16;5004778;28;20080;-47
2023/02/26 00:37:07;;;;;;;8.23;1.73;;;;;;;5.97;56.02;102118.53;5006884;28;20405;-43
2023/02/26 00:39:45;;;;;;;5.47;1.33;;;;;;;5.97;55.86;102122.00;5001444;28;20040;-40
2023/02/26 00:42:12;;;;;;;4.68;1.70;;;;;;;5.99;56.46;102128.13;5001535;28;20054;-47
2023/02/26 00:44:38;;;;;;;6.28;1.60;;;;;;;5.67;57.20;102126.41;5005577;28;20045;-46
2023/02/26 00:47:22;;;;;;;6.40;1.40;;;;;;;5.96;56.75;102145.22;5001324;28;20034;-45
2023/02/26 00:50:15;;;;;;;5.57;1.30;;;;;;;6.08;56.52;102143.25;5005195;28;20049;-44
2023/02/26 00:53:07;;;;;;;3.55;1.25;;;;;;;6.22;56.06;102147.41;5002655;28;20136;-45
2023/02/26 00:55:32;;;;;;;8.63;1.45;;;;;;;6.27;55.43;102145.97;5003980;28;20048;-44
2023/02/26 00:57:58;;;;;;;5.22;1.40;;;;;;;6.42;55.17;102145.84;5003004;28;20026;-44
2023/02/26 01:00:23;;;;;;;3.90;1.35;;;;;;;6.08;55.85;102146.75;5006942;28;20046;-44
2023/02/26 01:02:49;;;;;;;3.70;1.40;;;;;;;6.24;55.58;102143.22;5006358;28;20404;-47
2023/02/26 01:05:15;;;;;;;4.28;1.50;;;;;;;6.18;55.35;102148.09;5002611;28;20073;-48
2023/02/26 01:08:09;;;;;;;7.32;1.83;;;;;;;6.67;54.20;102151.44;5006287;28;20073;-43
2023/02/26 01:10:34;;;;;;;4.32;1.30;;;;;;;6.44;54.61;102158.06;4994204;28;20091;-43
2023/02/26 01:13:00;;;;;;;5.93;1.40;;;;;;;6.26;54.51;102154.56;5010035;28;20025;-42
2023/02/26 01:15:26;;;;;;;5.97;1.40;;;;;;;6.17;54.25;102154.06;5005092;28;20041;-46
2023/02/26 01:18:05;;;;;;;3.63;1.40;;;;;;;6.38;53.35;102164.66;5004825;28;20053;-45
2023/02/26 01:20:40;;;;;;;4.75;1.70;;;;;;;6.51;52.84;102162.75;5007471;28;20116;-47
2023/02/26 01:23:07;;;;;;;;;;;;;;;6.28;52.51;102171.03;5005762;28;20034;-42
2023/02/26 01:25:41;;;;;;;9.18;1.50;;;;;;;6.71;52.14;102171.50;5009535;28;19985;-44
2023/02/26 01:28:07;;;;;;;4.35;1.40;;;;;;;6.36;52.27;102177.50;5005297;28;20157;-45
2023/02/26 01:30:33;;;;;;;5.30;1.38;;;;;;;6.36;52.10;102176.63;5005948;28;20124;-45
2023/02/26 01:33:13;;;;;;;5.50;1.48;;;;;;;6.39;51.88;102182.88;5002399;28;20049;-44
2023/02/26 01:35:49;;;;;;;5.95;1.20;;;;;;;6.32;51.79;102182.47;5003506;28;20037;-46
2023/02/26 01:38:43;;;;;;;6.50;1.70;;;;;;;6.26;51.67;102185.63;4999821;28;20061;-43
2023/02/26 01:41:34;;;;;;;7.80;1.50;;;;;;;6.47;51.66;102191.00;4999036;28;20314;-47
2023/02/26 01:44:14;;;;;;;7.97;1.65;;;;;;;6.14;52.06;102185.00;4999272;28;20031;-44
2023/02/26 01:46:58;;;;;;;6.03;1.50;;;;;;;6.25;52.04;102190.72;5002426;28;20029;-45
2023/02/26 01:49:24;;;;;;;4.13;1.30;;;;;;;6.27;51.71;102192.59;4999375;28;20152;-41
2023/02/26 01:51:55;;;;;;;6.75;1.73;;;;;;;6.18;51.89;102193.81;4999798;28;20109;-54
2023/02/26 01:54:32;;;;;;;6.70;1.85;;;;;;;6.19;52.49;102193.88;5001348;28;20412;-44
2023/02/26 01:57:17;;;;;;;6.47;2.30;;;;;;;6.29;51.98;102198.72;4998808;28;20029;-47
2023/02/26 01:59:46;;;;;;;11.07;2.00;;;;;;;6.39;51.78;102200.09;5002361;28;20099;-43
2023/02/26 02:02:16;;;;;;;13.48;1.75;;;;;;;5.84;51.71;102197.19;4997727;28;20090;-47
2023/02/26 02:04:43;;;;;;;8.07;1.77;;;;;;;5.83;52.19;102204.84;5002509;28;20128;-47
2023/02/26 02:07:09;;;;;;;8.00;1.35;;;;;;;6.05;51.45;102206.09;4999279;28;20065;-45
2023/02/26 02:09:35;;;;;;;6.53;1.40;;;;;;;6.01;51.83;102213.63;5002594;28;20034;-46
2023/02/26 02:12:28;;;;;;;8.85;1.48;;;;;;;5.99;51.93;102217.84;5000821;28;20030;-47
2023/02/26 02:15:18;;;;;;;6.60;1.33;;;;;;;5.86;52.60;102212.78;5000498;28;20038;-43
2023/02/26 02:18:01;;;;;;;7.85;1.50;;;;;;;5.95;52.49;102226.25;5002232;28;20388;-44
2023/02/26 02:20:43;;;;;;;7.82;1.33;;;;;;;5.86;52.98;102229.19;4997204;28;20060;-45
2023/02/26 02:23:30;;;;;;;6.85;1.45;;;;;;;5.63;53.37;102230.53;4998463;28;20065;-47
2023/02/26 02:26:17;;;;;;;7.53;1.50;;;;;;;5.56;53.84;102235.28;4999021;28;20511;-44
2023/02/26 02:29:01;;;;;;;5.82;1.50;;;;;;;5.57;53.61;102231.91;5002919;28;20041;-45
2023/02/26 02:31:44;;;;;;;5.88;1.40;;;;;;;5.59;53.31;102249.31;4998190;28;23565;-44
2023/02/26 02:34:22;;;;;;;7.15;1.48;;;;;;;5.51;53.63;102247.09;4998538;28;21489;-44
2023/02/26 02:36:53;;;;;;;6.65;1.40;;;;;;;5.40;53.89;102248.19;5002086;28;20079;-44
2023/02/26 02:39:25;;;;;;;6.07;1.42;;;;;;;5.26;54.20;102256.06;4997375;28;20133;-43
2023/02/26 02:41:57;;;;;;;6.13;1.23;;;;;;;5.31;53.87;102258.88;4998580;28;20084;-47
2023/02/26 02:44:25;;;;;;;8.88;1.40;;;;;;;5.13;54.25;102265.59;5001679;28;20132;-44
2023/02/26 02:46:54;;;;;;;6.57;1.30;;;;;;;5.23;54.03;102261.06;5003450;28;20037;-43
2023/02/26 02:49:24;;;;;;;6.72;1.30;;;;;;;5.39;53.37;102265.41;4999813;28;20096;-47
2023/02/26 02:51:55;;;;;;;8.43;1.50;;;;;;;5.32;53.85;102266.75;5000936;28;20329;-50
2023/02/26 02:54:25;;;;;;;5.13;1.60;;;;;;;5.29;53.26;102270.88;5000984;28;20052;-43
2023/02/26 02:57:03;;;;;;;6.68;1.50;;;;;;;5.20;53.69;102271.22;4998131;28;20053;-48
2023/02/26 02:59:44;;;;;;;6.35;1.67;;;;;;;5.13;53.49;102271.66;5002259;28;20034;-45
2023/02/26 03:02:16;;;;;;;4.95;1.65;;;;;;;5.34;53.17;102266.84;4998117;28;23136;-44
2023/02/26 03:04:42;;;;;;;5.15;1.50;;;;;;;5.23;52.70;102273.09;5001853;28;20053;-45
2023/02/26 03:07:08;;;;;;;6.78;1.83;;;;;;;5.27;52.68;102272.47;4997960;28;20030;-43
2023/02/26 03:09:33;;;;;;;8.10;1.58;;;;;;;5.04;53.08;102278.91;5001567;28;20026;-44
2023/02/26 03:11:58;;;;;;;9.55;1.50;;;;;;;5.02;53.33;102271.84;4998026;28;20034;-43
2023/02/26 03:14:24;;;;;;;4.78;1.42;;;;;;;4.98;52.97;102278.56;5001688;28;20038;-44
2023/02/26 03:17:16;;;;;;;4.80;1.50;;;;;;;4.80;52.80;102275.78;4998646;28;20500;-44
2023/02/26 03:19:58;;;;;;;7.88;1.60;;;;;;;4.80;53.10;102280.94;5001064;28;20067;-44
2023/02/26 03:22:35;;;;;;;8.13;1.40;;;;;;;4.79;52.55;102283.44;4999876;28;20052;-48
2023/02/26 03:25:10;;;;;;;5.20;1.20;;;;;;;4.82;52.60;102283.59;4999746;28;20400;-43
2023/02/26 03:28:01;;;;;;;4.13;1.23;;;;;;;4.77;53.02;102285.03;5003234;28;20064;-46
2023/02/26 03:30:46;;;;;;;6.30;1.10;;;;;;;4.77;52.26;102285.94;4990202;28;20117;-44
2023/02/26 03:33:37;;;;;;;9.45;1.50;;;;;;;4.74;52.39;102290.94;5000920;28;20469;-43
2023/02/26 03:36:02;;;;;;;5.60;1.50;;;;;;;4.71;52.00;102288.16;5005569;28;20033;-45
2023/02/26 03:38:52;;;;;;;6.10;1.15;;;;;;;4.69;52.18;102292.34;5005718;28;20121;-44
2023/02/26 03:41:26;;;;;;;8.82;1.20;;;;;;;4.74;52.39;102296.09;5002522;28;20496;-44
2023/02/26 03:43:58;;;;;;;6.03;1.13;;;;;;;4.68;52.25;102300.00;5002640;28;20108;-43
2023/02/26 03:46:33;;;;;;;6.13;1.20;;;;;;;4.38;53.03;102306.81;5006689;28;20169;-44
2023/02/26 03:49:04;;;;;;;5.45;1.63;;;;;;;4.64;51.98;102301.50;5002936;28;20034;-44
2023/02/26 03:51:30;;;;;;;6.40;1.25;;;;;;;4.59;52.27;102310.66;5006831;28;20092;-46
2023/02/26 03:54:20;;;;;;;6.32;1.15;;;;;;;4.49;52.80;102313.50;4985734;28;20022;-42
2023/02/26 03:56:47;;;;;;;6.55;1.10;;;;;;;4.48;52.54;102310.03;5005369;28;20377;-45
2023/02/26 03:59:14;;;;;;;7.50;1.15;;;;;;;4.45;52.92;102320.16;5002472;28;20049;-45
2023/02/26 04:01:42;;;;;;;4.95;1.20;;;;;;;4.28;53.62;102314.75;5006469;28;20044;-46
2023/02/26 04:04:17;;;;;;;6.68;1.20;;;;;;;4.17;53.92;102320.94;5002664;28;20030;-46
2023/02/26 04:06:44;;;;;;;9.85;1.50;;;;;;;4.26;53.26;102321.53;5006566;28;20045;-43
2023/02/26 04:09:10;;;;;;;4.35;1.20;;;;;;;4.25;53.07;102320.66;5003223;28;20037;-43
2023/02/26 04:11:37;;;;;;;4.13;1.02;;;;;;;4.22;53.81;102324.69;5005403;28;20403;-47
2023/02/26 04:14:02;;;;;;;5.20;1.35;;;;;;;4.24;53.52;102330.88;5001298;28;20034;-44
2023/02/26 04:16:28;;;;;;;6.55;1.30;;;;;;;4.17;53.57;102329.59;5005016;28;20111;-45
2023/02/26 04:18:53;;;;;;;5.93;1.23;;;;;;;4.14;53.16;102334.56;4983865;28;20053;-45
2023/02/26 04:21:20;;;;;;;5.45;1.20;;;;;;;4.23;53.15;102337.72;5003629;28;20122;-45
2023/02/26 04:23:46;;;;;;;5.15;1.20;;;;;;;4.20;53.31;102345.28;5004604;28;20041;-42
2023/02/26 04:26:12;;;;;;;6.05;1.10;;;;;;;4.04;54.10;102347.69;5002009;28;20036;-42
2023/02/26 04:28:38;;;;;;;2.72;1.40;;;;;;;4.20;53.22;102345.28;5005302;28;20034;-44
2023/02/26 04:31:04;;;;;;;7.35;1.48;;;;;;;4.12;53.53;102346.47;4982507;28;20030;-47
2023/02/26 04:33:31;;;;;;;3.88;1.13;;;;;;;4.07;53.95;102353.94;5004821;28;20026;-46
2023/02/26 04:35:56;;;;;;;5.13;1.58;;;;;;;4.15;53.87;102349.25;5001070;28;20038;-43
2023/02/26 04:38:22;;;;;;;8.35;1.02;;;;;;;4.17;53.56;102350.25;5003650;28;20037;-45
2023/02/26 04:40:49;;;;;;;8.50;1.35;;;;;;;4.15;53.52;102348.38;5005066;28;20026;-47
2023/02/26 04:43:14;;;;;;;5.47;1.38;;;;;;;4.23;53.44;102352.31;4999822;28;20037;-43
2023/02/26 04:45:40;;;;;;;5.53;1.20;;;;;;;4.03;53.34;102361.38;5003060;28;20520;-44
2023/02/26 04:48:05;;;;;;;3.80;1.00;;;;;;;4.12;53.79;102361.06;4999437;28;20077;-43
2023/02/26 04:50:30;;;;;;;7.22;1.20;;;;;;;4.08;53.82;102365.16;5003420;28;20033;-43
2023/02/26 04:52:55;;;;;;;8.73;1.35;;;;;;;4.07;53.78;102376.28;4982979;28;20065;-44
2023/02/26 04:55:21;;;;;;;5.50;1.40;;;;;;;4.00;53.32;102375.00;5004010;28;20030;-44
2023/02/26 04:57:46;;;;;;;4.22;1.30;;;;;;;4.12;53.52;102377.47;5003286;28;20066;-46
2023/02/26 05:00:12;;;;;;;8.50;1.30;;;;;;;4.07;53.56;102377.19;4999276;28;20030;-44
2023/02/26 05:02:37;;;;;;;3.35;1.30;;;;;;;4.19;53.26;102384.78;5003483;28;20516;-44
2023/02/26 05:05:03;;;;;;;6.07;1.25;;;;;;;4.01;53.83;102384.53;4999743;28;20077;-45
2023/02/26 05:07:28;;;;;;;4.43;1.15;;;;;;;3.97;53.88;102390.25;5003117;28;20095;-52
2023/02/26 05:09:54;;;;;;;6.88;1.40;;;;;;;3.91;53.46;102386.41;5001942;28;20034;-44
2023/02/26 05:12:19;;;;;;;4.72;1.40;;;;;;;3.89;53.92;102385.44;5010504;28;20030;-45
2023/02/26 05:14:44;;;;;;;4.95;1.00;;;;;;;4.09;52.87;102382.41;5010251;28;20496;-43
2023/02/26 05:17:09;;;;;;;6.75;1.30;;;;;;;4.20;52.48;102396.91;5001844;28;20029;-47
2023/02/26 05:19:35;;;;;;;4.30;1.40;;;;;;;4.18;52.69;102385.59;5008705;28;20101;-47
2023/02/26 05:22:00;;;;;;;8.00;1.40;;;;;;;4.19;52.91;102386.47;5010699;28;20030;-44
2023/02/26 05:24:25;;;;;;;7.35;1.30;;;;;;;4.12;52.80;102392.94;4994475;28;20041;-45
2023/02/26 05:26:51;;;;;;;7.10;1.13;;;;;;;4.05;52.96;102406.25;5000685;28;20026;-45
2023/02/26 05:29:16;;;;;;;7.60;1.20;;;;;;;4.11;53.13;102413.47;5004222;28;20083;-44
2023/02/26 05:31:42;;;;;;;7.70;1.33;;;;;;;3.93;53.49;102408.03;5003934;28;20056;-49
2023/02/26 05:34:07;;;;;;;4.90;1.40;;;;;;;4.02;53.47;102411.22;5001424;28;20404;-45
2023/02/26 05:36:32;;;;;;;7.65;1.17;;;;;;;4.08;53.46;102409.03;5003870;28;20060;-46
2023/02/26 05:38:58;;;;;;;9.57;1.30;;;;;;;4.18;53.24;102418.25;4999180;28;20091;-44
2023/02/26 05:41:23;;;;;;;5.85;1.27;;;;;;;4.00;53.64;102416.28;5006484;28;20034;-42
2023/02/26 05:43:49;;;;;;;7.88;1.33;;;;;;;4.16;52.63;102423.31;5005528;28;20026;-44
2023/02/26 05:46:14;;;;;;;5.50;1.17;;;;;;;4.16;53.40;102432.72;5003044;28;20200;-49
2023/02/26 05:48:39;;;;;;;6.40;1.48;;;;;;;4.19;53.26;102420.03;5008008;28;20080;-45
2023/02/26 05:51:05;;;;;;;5.55;1.17;;;;;;;4.22;53.60;102431.44;4985886;28;20060;-46
2023/02/26 05:53:30;;;;;;;4.30;1.25;;;;;;;4.22;53.13;102426.28;5008093;28;20082;-44
2023/02/26 05:55:56;;;;;;;5.05;1.40;;;;;;;4.00;54.01;102441.19;5002408;28;20030;-43
2023/02/26 05:58:21;;;;;;;5.03;1.35;;;;;;;3.93;54.24;102434.72;5006589;28;20042;-45
2023/02/26 06:00:46;;;;;;;6.88;1.10;;;;;;;4.24;53.24;102431.53;5003250;28;20100;-44
2023/02/26 06:03:12;;;;;;;6.60;1.30;;;;;;;4.13;53.84;102440.28;4999167;28;20525;-43
2023/02/26 06:05:37;;;;;;;7.50;1.50;;;;;;;4.03;53.54;102442.25;5004019;28;20057;-46
2023/02/26 06:08:04;;;;;;;5.85;1.40;;;;;;;4.01;54.18;102436.13;4999401;28;20049;-43
2023/02/26 06:10:30;;;;;;;3.40;1.30;;;;;;;3.98;53.61;102441.09;5003430;28;20026;-46
2023/02/26 06:12:55;;;;;;;6.88;1.40;;;;;;;4.01;54.22;102448.16;4999539;28;20026;-43
2023/02/26 06:15:21;;;;;;;3.92;1.33;;;;;;;4.02;54.28;102452.50;5002624;28;20068;-43
2023/02/26 06:17:46;;;;;;;11.07;1.52;;;;;;;4.02;53.82;102457.69;5002091;28;20084;-44
2023/02/26 06:20:12;;;;;;;3.72;1.25;;;;;;;4.08;53.50;102465.81;4997739;28;20033;-44
2023/02/26 06:22:38;;;;;;;4.05;1.10;;;;;;;3.85;54.36;102473.72;5002013;28;20057;-45
2023/02/26 06:25:04;;;;;;;4.30;1.45;;;;;;;3.84;54.52;102487.44;4998071;28;20037;-43
2023/02/26 06:27:29;;;;;;;10.48;1.55;;;;;;;4.01;53.96;102479.09;5001443;28;20042;-44
2023/02/26 06:29:54;;;;;;;6.75;1.50;;;;;;;3.94;54.67;102484.66;5002222;28;20025;-44
2023/02/26 06:32:20;;;;;;;4.32;1.15;;;;;;;4.08;53.87;102489.94;4997976;28;20038;-44
2023/02/26 06:34:45;;;;;;;11.77;1.52;;;;;;;3.99;54.00;102494.47;5001442;28;20034;-45
2023/02/26 06:37:10;;;;;;;9.65;1.40;;;;;;;4.17;53.87;102502.53;4998172;28;20515;-45
2023/02/26 06:39:36;;;;;;;6.45;1.40;;;;;;;4.15;53.60;102504.09;5002688;28;20500;-45
2023/02/26 06:42:01;;;;;;;3.63;1.50;;;;;;;4.15;53.38;102498.94;4998369;28;20415;-44
2023/02/26 06:44:26;;;;;;;3.72;1.15;;;;;;;4.20;53.04;102510.50;5002058;28;20044;-44
2023/02/26 06:46:52;;;;;;;4.55;1.48;;;;;;;4.32;53.40;102511.28;4998122;28;20057;-44
2023/02/26 06:49:17;;;;;;;6.85;1.63;;;;;;;4.32;52.88;102513.88;5002291;28;20468;-45
2023/02/26 06:51:43;;;;;;;8.73;2.08;;;;;;;4.16;53.16;102520.47;5002059;28;20034;-44
2023/02/26 06:54:08;;;;;;;5.15;1.73;;;;;;;4.28;53.90;102532.50;4998268;28;20109;-43
2023/02/26 06:56:33;;;;;;;4.22;1.70;;;;;;;4.30;53.11;102525.75;5002324;28;20030;-44
2023/02/26 06:58:59;;;;;;;5.97;1.30;;;;;;;4.33;53.40;102538.00;4998784;28;20496;-44
2023/02/26 07:01:24;;;;;;;3.90;1.25;;;;;;;4.32;53.24;102539.69;5002502;28;20025;-49
2023/02/26 07:03:49;;;;;;;8.65;1.20;;;;;;;4.32;53.29;102539.69;5000690;28;20462;-46
2023/02/26 07:06:15;;;;;;;7.00;1.48;;;;;;;4.31;53.06;102547.31;4999487;28;20048;-44
2023/02/26 07:08:41;;;;;;;8.02;1.50;;;;;;;4.54;53.04;102554.84;5005095;28;20037;-45
2023/02/26 07:11:07;;;;;;;4.30;1.35;;;;;;;4.69;52.71;102560.13;5001683;28;20084;-47
2023/02/26 07:13:33;;;;;;;5.70;1.20;;;;;;;5.03;52.92;102569.19;5006164;28;20034;-46
2023/02/26 07:15:58;;;;;;;6.68;1.40;;;;;;;5.10;51.80;102558.44;5001754;28;20065;-44
2023/02/26 07:18:23;;;;;;;4.20;1.45;;;;;;;5.05;51.27;102571.88;5006492;28;20030;-44
2023/02/26 07:20:49;;;;;;;10.98;1.15;;;;;;;4.99;51.54;102568.91;4989338;28;20523;-47
2023/02/26 07:23:15;;;;;;;5.13;1.10;;;;;;;4.94;51.79;102565.16;5003398;28;20038;-46
2023/02/26 07:25:40;;;;;;;7.40;1.23;;;;;;;4.89;51.63;102573.50;5006080;28;20037;-44
2023/02/26 07:28:06;;;;;;;4.97;1.33;;;;;;;4.87;51.85;102579.38;5001836;28;20026;-45
2023/02/26 07:30:31;;;;;;;4.00;1.10;;;;;;;5.08;51.27;102579.81;5005919;28;20041;-42
2023/02/26 07:32:57;;;;;;;5.25;1.50;;;;;;;5.33;50.94;102583.13;5002990;28;20373;-44
2023/02/26 07:35:22;;;;;;;4.63;1.20;;;;;;;5.26;51.31;102591.28;5005259;28;20055;-44
2023/02/26 07:37:48;;;;;;;3.60;1.45;;;;;;;5.03;51.44;102594.16;5005859;28;20041;-45
2023/02/26 07:40:14;;;;;;;7.85;1.23;;;;;;;5.30;50.75;102593.28;4983193;28;20048;-43
2023/02/26 07:42:39;;;;;;;5.60;1.38;;;;;;;5.40;50.61;102605.97;5005102;28;20061;-43
2023/02/26 07:45:06;;;;;;;5.65;1.10;;;;;;;5.25;51.58;102603.34;5001003;28;20088;-45
2023/02/26 07:47:32;;;;;;;4.28;1.10;;;;;;;5.09;51.52;102603.19;5005756;28;20038;-46
2023/02/26 07:49:57;;;;;;;4.03;1.15;;;;;;;5.42;50.20;102599.22;5004159;28;20090;-45
2023/02/26 07:52:23;;;;;;;4.93;1.15;;;;;;;5.60;50.03;102604.63;5010225;28;20030;-46
2023/02/26 07:54:48;;;;;;;5.45;1.17;;;;;;;5.48;49.95;102604.78;5008059;28;20053;-44
2023/02/26 07:57:13;;;;;;;3.22;1.17;;;;;;;5.52;49.44;102604.16;5005574;28;20029;-45
2023/02/26 07:59:39;;;;;;;6.70;1.30;;;;;;;5.26;49.80;102605.13;5008592;28;20036;-47
2023/02/26 08:02:05;;;;;;;5.45;1.10;;;;;;;5.45;49.35;102612.34;5002521;28;20385;-44
2023/02/26 08:04:31;;;;;;;5.65;1.17;;;;;;;5.54;48.86;102610.31;5004617;28;20034;-44
2023/02/26 08:06:58;;;;;;;7.35;1.20;;;;;;;5.30;49.08;102620.06;5001016;28;20081;-43
2023/02/26 08:09:24;;;;;;;3.08;0.88;;;;;;;5.29;48.06;102628.59;5005498;28;20029;-44
2023/02/26 08:11:50;;;;;;;5.88;0.93;;;;;;;5.65;47.10;102621.31;4985726;28;20033;-44
2023/02/26 08:14:15;;;;;;;3.70;1.20;;;;;;;5.69;46.58;102620.69;5003638;28;20522;-49
2023/02/26 08:16:40;;;;;;;5.10;1.00;;;;;;;5.54;45.88;102627.53;5005082;28;20257;-43
2023/02/26 08:19:06;;;;;;;4.28;0.90;;;;;;;5.96;45.12;102629.28;4982411;28;20077;-44
2023/02/26 08:21:31;;;;;;;4.50;0.80;;;;;;;5.78;44.79;102626.44;5006738;28;20419;-44
2023/02/26 08:23:56;;;;;;;4.88;0.90;;;;;;;6.05;45.27;102628.13;4982947;28;20038;-44
2023/02/26 08:26:22;;;;;;;4.95;0.80;;;;;;;6.37;44.48;102644.66;5004758;28;20034;-45
2023/02/26 08:28:47;;;;;;;4.07;0.88;;;;;;;6.42;43.95;102645.81;5003887;28;20041;-46
2023/02/26 08:31:13;;;;;;;3.13;0.98;;;;;;;6.10;43.28;102639.63;5000023;28;20762;-45
2023/02/26 08:33:39;;;;;;;4.85;1.00;;;;;;;6.36;43.81;102648.03;5004025;28;20026;-46
2023/02/26 08:36:06;;;;;;;2.05;0.90;;;;;;;6.64;43.20;102653.16;5000556;28;20682;-44
2023/02/26 08:38:31;;;;;;;3.72;0.90;;;;;;;6.36;43.56;102651.53;5004347;28;20030;-45
2023/02/26 08:40:57;;;;;;;4.90;0.80;;;;;;;6.57;42.58;102656.19;5001504;28;20037;-46
2023/02/26 08:43:23;;;;;;;7.45;0.93;;;;;;;6.53;42.88;102658.59;5004012;28;20729;-43
2023/02/26 08:45:52;;;;;;;4.22;0.82;;;;;;;6.86;41.94;102666.50;4985715;28;20054;-46
2023/02/26 08:48:17;;;;;;;3.70;0.80;;;;;;;6.55;42.24;102661.28;4999468;28;20565;-46
2023/02/26 08:50:42;;;;;;;3.20;0.80;;;;;;;6.44;41.91;102676.19;5002511;28;20124;-44
2023/02/26 08:53:08;;;;;;;4.95;1.00;;;;;;;6.49;42.41;102676.47;4982289;28;20038;-44
2023/02/26 08:55:33;;;;;;;5.53;0.80;;;;;;;6.35;41.82;102675.66;5003488;28;20037;-44
2023/02/26 08:57:59;;;;;;;2.97;0.90;;;;;;;6.57;42.18;102675.22;5000757;28;20053;-43
2023/02/26 09:00:24;;;;;;;4.35;0.85;;;;;;;6.69;42.35;102668.16;5005729;28;20026;-48
2023/02/26 09:02:49;;;;;;;3.00;0.80;;;;;;;6.91;42.04;102678.03;5003626;28;20114;-62
2023/02/26 09:05:15;;;;;;;5.32;1.00;;;;;;;6.60;42.00;102682.25;5003555;28;20046;-43
2023/02/26 09:07:42;;;;;;;3.88;0.90;;;;;;;6.65;42.02;102691.22;5005406;28;20476;-46
2023/02/26 09:10:08;;;;;;;3.53;0.95;;;;;;;6.93;42.45;102681.63;5001195;28;20037;-45
2023/02/26 09:12:36;;;;;;;3.85;0.80;;;;;;;6.79;41.89;102688.59;5005459;28;20500;-44
2023/02/26 09:15:04;;;;;;;5.43;0.90;;;;;;;6.72;41.04;102702.00;5004678;28;20030;-44
2023/02/26 09:17:29;;;;;;;3.92;0.93;;;;;;;6.68;41.75;102701.75;5008350;28;20042;-43
2023/02/26 09:19:55;;;;;;;3.60;0.80;;;;;;;6.83;41.70;102702.66;5003987;28;20034;-45
2023/02/26 09:22:20;;;;;;;3.63;0.90;;;;;;;7.07;40.87;102700.56;5003945;28;20030;-46
2023/02/26 09:24:46;;;;;;;4.93;0.82;;;;;;;7.24;41.75;102705.00;4986399;28;20133;-44
2023/02/26 09:27:11;;;;;;;4.88;1.10;;;;;;;7.13;40.70;102700.91;4999063;28;20034;-44
2023/02/26 09:29:36;;;;;;;2.08;0.60;;;;;;;7.46;40.96;102717.44;5002942;28;20076;-45
2023/02/26 09:32:03;;;;;;;2.85;0.80;;;;;;;7.32;40.45;102714.06;4998077;28;20397;-46
2023/02/26 09:34:29;;;;;;;3.00;0.82;;;;;;;7.33;40.67;102721.06;5003587;28;20729;-44
2023/02/26 09:36:54;;;;;;;6.25;1.17;;;;;;;7.03;40.42;102709.84;4999981;28;20034;-47
2023/02/26 09:39:20;;;;;;;3.03;0.80;;;;;;;7.19;40.40;102722.00;5002568;28;20038;-46
2023/02/26 09:41:53;;;;;;;3.15;0.70;;;;;;;7.24;40.80;102730.94;5002655;28;20034;-43
2023/02/26 09:44:31;;;;;;;4.07;0.88;;;;;;;7.16;40.45;102738.28;4999855;28;20399;-44
2023/02/26 09:47:26;;;;;;;1.98;0.70;;;;;;;7.11;40.42;102742.31;4999443;28;20038;-44
2023/02/26 09:50:41;;;;;;;2.80;0.70;;;;;;;6.99;40.12;102730.34;5001866;28;20403;-45
2023/02/26 09:53:40;;;;;;;3.53;1.03;;;;;;;6.98;39.81;102739.81;4942312;28;20087;-46
2023/02/26 09:56:24;;;;;;;2.00;0.70;;;;;;;7.42;39.39;102746.63;5000413;28;20092;-44
2023/02/26 09:58:52;;;;;;;3.55;0.70;;;;;;;7.49;39.55;102751.34;5003758;28;20057;-44
2023/02/26 10:01:46;;;;;;;5.82;0.70;;;;;;;7.24;39.47;102754.28;4999857;28;20034;-45
2023/02/26 10:04:38;;;;;;;4.10;0.90;;;;;;;7.54;39.00;102753.41;5003795;28;20042;-44
2023/02/26 10:07:12;;;;;;;2.60;0.77;;;;;;;7.58;39.58;102759.63;4982755;28;20045;-46
2023/02/26 10:09:40;;;;;;;6.97;0.90;;;;;;;7.44;39.15;102753.66;4999915;28;20120;-44
2023/02/26 10:12:26;;;;;;;3.58;0.70;;;;;;;7.38;38.70;102761.13;5000415;28;20034;-45
2023/02/26 10:15:11;;;;;;;1.23;0.60;;;;;;;7.51;38.53;102768.78;4999750;28;20121;-45
2023/02/26 10:17:39;;;;;;;;;;;;;;;8.01;38.71;102770.66;5004183;28;20500;-41
2023/02/26 10:20:14;;;;;;;2.33;0.65;;;;;;;7.71;38.49;102775.09;4999462;28;19920;-43
2023/02/26 10:23:10;;;;;;;1.65;0.55;;;;;;;7.66;38.83;102776.53;5002581;28;20125;-43
2023/02/26 10:25:43;;;;;;;3.13;0.60;;;;;;;7.90;38.29;102775.28;4996386;28;20038;-43
2023/02/26 10:28:27;;;;;;;2.08;0.70;;;;;;;7.91;39.73;102784.88;4999705;28;20092;-47
2023/02/26 10:31:02;;;;;;;1.20;0.60;;;;;;;8.23;38.31;102784.00;5001704;28;20434;-58
2023/02/26 10:33:38;;;;;;;3.17;0.75;;;;;;;8.18;37.97;102789.75;4999756;28;20042;-44
2023/02/26 10:36:12;;;;;;;5.93;0.70;;;;;;;8.03;38.44;102797.63;4998691;28;20037;-43
2023/02/26 10:38:37;;;;;;;6.85;0.68;;;;;;;7.86;38.29;102799.31;5001902;28;20037;-43
2023/02/26 10:41:15;;;;;;;2.10;0.70;;;;;;;8.22;37.70;102795.22;4999300;28;20034;-49
2023/02/26 10:43:51;;;;;;;3.58;0.80;;;;;;;8.17;37.88;102801.88;5000639;28;20531;-45
2023/02/26 10:46:36;;;;;;;1.67;0.65;;;;;;;7.87;37.54;102803.66;4998326;28;20042;-44
2023/02/26 10:49:33;;;;;;;3.10;0.90;;;;;;;8.30;38.14;102804.31;4999316;28;20033;-43
2023/02/26 10:52:10;;;;;;;3.63;0.73;;;;;;;8.26;38.14;102799.75;4998015;28;20033;-43
2023/02/26 10:54:40;;;;;;;1.95;0.70;;;;;;;8.54;38.02;102799.50;5001675;28;20026;-44
2023/02/26 10:57:14;;;;;;;3.40;0.60;;;;;;;8.35;37.68;102802.00;4998262;28;20757;-44
2023/02/26 10:59:40;;;;;;;2.53;0.60;;;;;;;8.00;37.89;102795.75;5001814;28;20026;-44
2023/02/26 11:02:28;;;;;;;2.97;0.85;;;;;;;8.12;38.19;102813.69;5001142;28;20173;-47
2023/02/26 11:04:54;;;;;;;4.00;0.90;;;;;;;8.63;38.09;102813.00;4993773;28;20069;-47
2023/02/26 11:07:20;;;;;;;4.20;0.70;;;;;;;8.39;37.98;102812.63;5002003;28;20084;-44
2023/02/26 11:09:46;;;;;;;2.75;0.70;;;;;;;8.66;38.11;102809.69;5002214;28;21069;-46
2023/02/26 11:12:11;;;;;;;7.65;0.85;;;;;;;8.18;38.04;102816.63;4997053;28;20045;-44
2023/02/26 11:14:38;;;;;;;4.30;0.90;;;;;;;8.04;37.76;102808.09;5000577;28;20061;-44
2023/02/26 11:17:11;;;;;;;3.08;0.70;;;;;;;8.66;37.46;102820.09;4996456;28;20030;-45
2023/02/26 11:19:46;;;;;;;2.17;0.77;;;;;;;9.24;36.77;102813.50;5000928;28;20030;-43
2023/02/26 11:22:13;;;;;;;4.28;0.90;;;;;;;9.00;37.57;102807.97;4996893;28;20038;-46
2023/02/26 11:24:43;;;;;;;3.13;0.80;;;;;;;8.73;37.23;102801.38;5001000;28;20522;-43
2023/02/26 11:27:15;;;;;;;3.67;0.80;;;;;;;8.98;36.90;102795.69;4997087;28;20033;-46
2023/02/26 11:29:45;;;;;;;2.35;0.60;;;;;;;9.06;37.02;102797.88;5001702;28;20038;-45
2023/02/26 11:32:27;;;;;;;2.78;0.73;;;;;;;9.32;36.35;102809.59;4997757;28;20374;-46
2023/02/26 11:34:53;;;;;;;4.38;0.95;;;;;;;9.26;37.27;102794.56;4998200;28;20539;-46
2023/02/26 11:37:23;;;;;;;3.72;0.90;;;;;;;8.77;37.39;102800.72;5002434;28;20034;-46
2023/02/26 11:40:26;;;;;;;3.95;0.70;;;;;;;8.36;38.16;102804.66;5001818;28;20381;-43
2023/02/26 11:42:54;;;;;;;2.17;0.60;;;;;;;8.34;37.49;102788.09;4944020;28;20057;-44
2023/02/26 11:45:21;;;;;;;3.85;0.60;;;;;;;8.43;37.30;102814.56;5002535;28;20042;-45
2023/02/26 11:47:48;;;;;;;3.28;0.60;;;;;;;8.46;37.41;102808.63;5002683;28;20038;-44
2023/02/26 11:50:19;;;;;;;2.45;0.73;;;;;;;8.78;36.77;102797.31;4998622;28;20042;-46